sensor_id;sensor_type;location;lat;lon;timestamp;P1;durP1;ratioP1;P2;durP2;ratioP2
7477;SDS011;3780;42.424;25.636;2022-12-10T00:01:36;35.55;;;17.05;;
7477;SDS011;3780;42.424;25.636;2022-12-10T00:04:01;33.40;;;17.27;;
7477;SDS011;3780;42.424;25.636;2022-12-10T00:06:28;35.40;;;17.42;;
7477;SDS011;3780;42.424;25.636;2022-12-10T00:08:54;37.53;;;17.42;;
7477;SDS011;3780;42.424;25.636;2022-12-10T00:11:20;37.22;;;17.58;;
7477;SDS011;3780;42.424;25.636;2022-12-10T00:13:45;38.30;;;18.10;;
7477;SDS011;3780;42.424;25.636;2022-12-10T00:16:12;44.80;;;19.17;;
7477;SDS011;3780;42.424;25.636;2022-12-10T00:18:37;39.22;;;19.95;;
7477;SDS011;3780;42.424;25.636;2022-12-10T00:21:03;41.45;;;19.10;;
7477;SDS011;3780;42.424;25.636;2022-12-10T00:23:29;39.88;;;18.00;;
7477;SDS011;3780;42.424;25.636;2022-12-10T00:26:19;49.05;;;19.13;;
7477;SDS011;3780;42.424;25.636;2022-12-10T00:28:43;35.17;;;16.83;;
7477;SDS011;3780;42.424;25.636;2022-12-10T00:31:09;38.20;;;18.45;;
7477;SDS011;3780;42.424;25.636;2022-12-10T00:33:35;31.13;;;15.93;;
7477;SDS011;3780;42.424;25.636;2022-12-10T00:36:04;31.48;;;16.63;;
7477;SDS011;3780;42.424;25.636;2022-12-10T00:38:30;42.28;;;17.33;;
7477;SDS011;3780;42.424;25.636;2022-12-10T00:40:56;35.90;;;16.90;;
7477;SDS011;3780;42.424;25.636;2022-12-10T00:43:21;35.95;;;17.52;;
7477;SDS011;3780;42.424;25.636;2022-12-10T00:45:46;35.13;;;16.88;;
7477;SDS011;3780;42.424;25.636;2022-12-10T00:48:12;30.65;;;15.55;;
7477;SDS011;3780;42.424;25.636;2022-12-10T00:50:37;35.30;;;16.63;;
7477;SDS011;3780;42.424;25.636;2022-12-10T00:53:02;36.80;;;15.98;;
7477;SDS011;3780;42.424;25.636;2022-12-10T00:55:28;27.40;;;15.02;;
7477;SDS011;3780;42.424;25.636;2022-12-10T00:57:53;28.73;;;15.32;;
7477;SDS011;3780;42.424;25.636;2022-12-10T01:00:18;28.77;;;15.90;;
7477;SDS011;3780;42.424;25.636;2022-12-10T01:02:43;24.67;;;14.95;;
7477;SDS011;3780;42.424;25.636;2022-12-10T01:05:09;31.33;;;14.95;;
7477;SDS011;3780;42.424;25.636;2022-12-10T01:07:34;27.58;;;14.73;;
7477;SDS011;3780;42.424;25.636;2022-12-10T01:09:59;27.80;;;13.88;;
7477;SDS011;3780;42.424;25.636;2022-12-10T01:12:25;30.17;;;14.20;;
7477;SDS011;3780;42.424;25.636;2022-12-10T01:14:50;27.88;;;14.77;;
7477;SDS011;3780;42.424;25.636;2022-12-10T01:17:15;33.83;;;13.63;;
7477;SDS011;3780;42.424;25.636;2022-12-10T01:19:41;23.08;;;12.93;;
7477;SDS011;3780;42.424;25.636;2022-12-10T01:22:06;25.55;;;13.18;;
7477;SDS011;3780;42.424;25.636;2022-12-10T01:24:31;24.02;;;12.50;;
7477;SDS011;3780;42.424;25.636;2022-12-10T01:26:57;29.92;;;12.10;;
7477;SDS011;3780;42.424;25.636;2022-12-10T01:29:22;23.15;;;12.60;;
7477;SDS011;3780;42.424;25.636;2022-12-10T01:31:51;18.48;;;11.25;;
7477;SDS011;3780;42.424;25.636;2022-12-10T01:34:17;19.92;;;12.30;;
7477;SDS011;3780;42.424;25.636;2022-12-10T01:36:43;21.60;;;11.65;;
7477;SDS011;3780;42.424;25.636;2022-12-10T01:39:10;19.52;;;12.30;;
7477;SDS011;3780;42.424;25.636;2022-12-10T01:41:37;21.35;;;11.20;;
7477;SDS011;3780;42.424;25.636;2022-12-10T01:44:05;16.38;;;11.00;;
7477;SDS011;3780;42.424;25.636;2022-12-10T01:46:51;21.50;;;11.48;;
7477;SDS011;3780;42.424;25.636;2022-12-10T01:49:21;19.95;;;10.82;;
7477;SDS011;3780;42.424;25.636;2022-12-10T01:51:47;20.67;;;10.98;;
7477;SDS011;3780;42.424;25.636;2022-12-10T01:54:16;21.38;;;11.23;;
7477;SDS011;3780;42.424;25.636;2022-12-10T01:56:43;18.60;;;11.18;;
7477;SDS011;3780;42.424;25.636;2022-12-10T01:59:09;17.73;;;11.43;;
7477;SDS011;3780;42.424;25.636;2022-12-10T02:14:12;16.83;;;12.02;;
7477;SDS011;3780;42.424;25.636;2022-12-10T02:16:44;18.63;;;11.13;;
7477;SDS011;3780;42.424;25.636;2022-12-10T02:19:23;18.80;;;11.98;;
7477;SDS011;3780;42.424;25.636;2022-12-10T02:21:50;23.15;;;11.00;;
7477;SDS011;3780;42.424;25.636;2022-12-10T02:24:18;24.35;;;12.20;;
7477;SDS011;3780;42.424;25.636;2022-12-10T02:27:04;27.15;;;12.68;;
7477;SDS011;3780;42.424;25.636;2022-12-10T02:29:30;25.20;;;12.77;;
7477;SDS011;3780;42.424;25.636;2022-12-10T02:32:00;25.13;;;12.07;;
7477;SDS011;3780;42.424;25.636;2022-12-10T02:34:28;24.13;;;12.43;;
7477;SDS011;3780;42.424;25.636;2022-12-10T02:36:55;20.60;;;12.40;;
7477;SDS011;3780;42.424;25.636;2022-12-10T02:39:24;25.88;;;12.18;;
7477;SDS011;3780;42.424;25.636;2022-12-10T02:41:54;22.13;;;11.90;;
7477;SDS011;3780;42.424;25.636;2022-12-10T02:44:20;22.73;;;12.80;;
7477;SDS011;3780;42.424;25.636;2022-12-10T02:46:47;21.08;;;12.85;;
7477;SDS011;3780;42.424;25.636;2022-12-10T02:49:14;25.35;;;13.25;;
7477;SDS011;3780;42.424;25.636;2022-12-10T02:51:40;28.83;;;13.00;;
7477;SDS011;3780;42.424;25.636;2022-12-10T02:54:07;23.55;;;12.35;;
7477;SDS011;3780;42.424;25.636;2022-12-10T02:56:54;26.00;;;12.75;;
7477;SDS011;3780;42.424;25.636;2022-12-10T02:59:56;28.05;;;13.20;;
7477;SDS011;3780;42.424;25.636;2022-12-10T03:02:15;26.95;;;13.60;;
7477;SDS011;3780;42.424;25.636;2022-12-10T03:07:14;26.77;;;12.90;;
7477;SDS011;3780;42.424;25.636;2022-12-10T03:10:00;24.98;;;13.50;;
7477;SDS011;3780;42.424;25.636;2022-12-10T03:12:31;23.33;;;13.73;;
7477;SDS011;3780;42.424;25.636;2022-12-10T03:14:58;25.70;;;13.98;;
7477;SDS011;3780;42.424;25.636;2022-12-10T03:17:24;31.05;;;14.10;;
7477;SDS011;3780;42.424;25.636;2022-12-10T03:19:49;28.05;;;13.52;;
7477;SDS011;3780;42.424;25.636;2022-12-10T03:22:16;29.30;;;14.20;;
7477;SDS011;3780;42.424;25.636;2022-12-10T03:24:42;30.83;;;15.00;;
7477;SDS011;3780;42.424;25.636;2022-12-10T03:27:08;25.35;;;13.75;;
7477;SDS011;3780;42.424;25.636;2022-12-10T03:29:35;28.30;;;15.05;;
7477;SDS011;3780;42.424;25.636;2022-12-10T03:32:02;22.67;;;14.40;;
7477;SDS011;3780;42.424;25.636;2022-12-10T03:34:27;24.48;;;14.10;;
7477;SDS011;3780;42.424;25.636;2022-12-10T03:36:53;29.65;;;15.88;;
7477;SDS011;3780;42.424;25.636;2022-12-10T03:39:18;28.45;;;15.10;;
7477;SDS011;3780;42.424;25.636;2022-12-10T03:41:44;28.30;;;14.70;;
7477;SDS011;3780;42.424;25.636;2022-12-10T03:44:09;24.75;;;13.75;;
7477;SDS011;3780;42.424;25.636;2022-12-10T03:46:34;28.83;;;14.32;;
7477;SDS011;3780;42.424;25.636;2022-12-10T03:49:00;30.13;;;15.27;;
7477;SDS011;3780;42.424;25.636;2022-12-10T03:51:26;32.00;;;14.75;;
7477;SDS011;3780;42.424;25.636;2022-12-10T03:53:51;26.48;;;13.60;;
7477;SDS011;3780;42.424;25.636;2022-12-10T03:56:17;26.55;;;13.02;;
7477;SDS011;3780;42.424;25.636;2022-12-10T03:58:43;26.88;;;12.23;;
7477;SDS011;3780;42.424;25.636;2022-12-10T04:01:08;28.42;;;13.00;;
7477;SDS011;3780;42.424;25.636;2022-12-10T04:03:35;24.90;;;12.75;;
7477;SDS011;3780;42.424;25.636;2022-12-10T04:06:02;23.50;;;12.43;;
7477;SDS011;3780;42.424;25.636;2022-12-10T04:08:27;29.10;;;12.48;;
7477;SDS011;3780;42.424;25.636;2022-12-10T04:10:52;24.73;;;12.38;;
7477;SDS011;3780;42.424;25.636;2022-12-10T04:13:18;22.20;;;12.73;;
7477;SDS011;3780;42.424;25.636;2022-12-10T04:16:02;28.88;;;12.70;;
7477;SDS011;3780;42.424;25.636;2022-12-10T04:18:46;27.63;;;14.82;;
7477;SDS011;3780;42.424;25.636;2022-12-10T04:21:11;26.55;;;12.55;;
7477;SDS011;3780;42.424;25.636;2022-12-10T04:23:55;21.10;;;13.05;;
7477;SDS011;3780;42.424;25.636;2022-12-10T04:26:39;27.85;;;14.25;;
7477;SDS011;3780;42.424;25.636;2022-12-10T04:29:24;27.63;;;15.50;;
7477;SDS011;3780;42.424;25.636;2022-12-10T04:31:50;22.90;;;13.05;;
7477;SDS011;3780;42.424;25.636;2022-12-10T04:34:16;28.80;;;18.02;;
7477;SDS011;3780;42.424;25.636;2022-12-10T04:36:41;32.20;;;15.68;;
7477;SDS011;3780;42.424;25.636;2022-12-10T04:39:07;25.13;;;13.85;;
7477;SDS011;3780;42.424;25.636;2022-12-10T04:41:32;27.20;;;13.60;;
7477;SDS011;3780;42.424;25.636;2022-12-10T04:43:57;28.45;;;16.83;;
7477;SDS011;3780;42.424;25.636;2022-12-10T04:46:23;27.20;;;15.55;;
7477;SDS011;3780;42.424;25.636;2022-12-10T04:48:48;36.40;;;17.60;;
7477;SDS011;3780;42.424;25.636;2022-12-10T04:51:13;38.95;;;20.13;;
7477;SDS011;3780;42.424;25.636;2022-12-10T04:53:39;37.10;;;19.33;;
7477;SDS011;3780;42.424;25.636;2022-12-10T04:56:04;26.90;;;15.95;;
7477;SDS011;3780;42.424;25.636;2022-12-10T04:58:31;29.92;;;15.70;;
7477;SDS011;3780;42.424;25.636;2022-12-10T05:01:08;30.38;;;14.65;;
7477;SDS011;3780;42.424;25.636;2022-12-10T05:03:34;22.40;;;13.10;;
7477;SDS011;3780;42.424;25.636;2022-12-10T05:06:00;22.73;;;12.88;;
7477;SDS011;3780;42.424;25.636;2022-12-10T05:08:26;27.20;;;13.73;;
7477;SDS011;3780;42.424;25.636;2022-12-10T05:10:51;20.30;;;12.65;;
7477;SDS011;3780;42.424;25.636;2022-12-10T05:13:16;27.10;;;14.55;;
7477;SDS011;3780;42.424;25.636;2022-12-10T05:15:42;23.25;;;13.05;;
7477;SDS011;3780;42.424;25.636;2022-12-10T05:18:08;21.63;;;12.98;;
7477;SDS011;3780;42.424;25.636;2022-12-10T05:20:33;22.85;;;12.85;;
7477;SDS011;3780;42.424;25.636;2022-12-10T05:22:58;29.45;;;14.20;;
7477;SDS011;3780;42.424;25.636;2022-12-10T05:25:42;28.23;;;13.57;;
7477;SDS011;3780;42.424;25.636;2022-12-10T05:28:20;23.45;;;14.32;;
7477;SDS011;3780;42.424;25.636;2022-12-10T05:30:45;29.95;;;15.30;;
7477;SDS011;3780;42.424;25.636;2022-12-10T05:33:11;32.47;;;14.52;;
7477;SDS011;3780;42.424;25.636;2022-12-10T05:35:36;29.38;;;15.05;;
7477;SDS011;3780;42.424;25.636;2022-12-10T05:38:01;26.08;;;14.05;;
7477;SDS011;3780;42.424;25.636;2022-12-10T05:40:27;29.25;;;14.93;;
7477;SDS011;3780;42.424;25.636;2022-12-10T05:42:52;29.88;;;15.60;;
7477;SDS011;3780;42.424;25.636;2022-12-10T05:45:17;38.80;;;20.98;;
7477;SDS011;3780;42.424;25.636;2022-12-10T05:47:43;27.15;;;17.33;;
7477;SDS011;3780;42.424;25.636;2022-12-10T05:50:08;32.40;;;18.70;;
7477;SDS011;3780;42.424;25.636;2022-12-10T05:52:33;27.35;;;17.67;;
7477;SDS011;3780;42.424;25.636;2022-12-10T05:54:59;35.47;;;19.10;;
7477;SDS011;3780;42.424;25.636;2022-12-10T05:57:24;31.88;;;18.48;;
7477;SDS011;3780;42.424;25.636;2022-12-10T05:59:49;30.00;;;19.08;;
7477;SDS011;3780;42.424;25.636;2022-12-10T06:02:15;52.67;;;32.13;;
7477;SDS011;3780;42.424;25.636;2022-12-10T06:04:41;39.58;;;25.25;;
7477;SDS011;3780;42.424;25.636;2022-12-10T06:07:06;36.58;;;20.77;;
7477;SDS011;3780;42.424;25.636;2022-12-10T06:09:31;35.60;;;21.73;;
7477;SDS011;3780;42.424;25.636;2022-12-10T06:11:57;37.20;;;21.33;;
7477;SDS011;3780;42.424;25.636;2022-12-10T06:14:22;42.42;;;19.73;;
7477;SDS011;3780;42.424;25.636;2022-12-10T06:16:47;69.10;;;51.05;;
7477;SDS011;3780;42.424;25.636;2022-12-10T06:19:13;40.20;;;24.55;;
7477;SDS011;3780;42.424;25.636;2022-12-10T06:21:38;32.78;;;20.45;;
7477;SDS011;3780;42.424;25.636;2022-12-10T06:24:03;97.72;;;59.47;;
7477;SDS011;3780;42.424;25.636;2022-12-10T06:26:28;42.67;;;24.48;;
7477;SDS011;3780;42.424;25.636;2022-12-10T06:28:54;80.75;;;50.28;;
7477;SDS011;3780;42.424;25.636;2022-12-10T06:31:19;48.65;;;30.00;;
7477;SDS011;3780;42.424;25.636;2022-12-10T06:33:46;42.78;;;18.70;;
7477;SDS011;3780;42.424;25.636;2022-12-10T06:36:12;30.60;;;17.52;;
7477;SDS011;3780;42.424;25.636;2022-12-10T06:38:38;32.25;;;18.63;;
7477;SDS011;3780;42.424;25.636;2022-12-10T06:41:04;29.40;;;18.13;;
7477;SDS011;3780;42.424;25.636;2022-12-10T06:43:29;29.33;;;17.52;;
7477;SDS011;3780;42.424;25.636;2022-12-10T06:45:55;32.83;;;19.02;;
7477;SDS011;3780;42.424;25.636;2022-12-10T06:48:20;33.20;;;17.42;;
7477;SDS011;3780;42.424;25.636;2022-12-10T06:50:45;34.63;;;17.10;;
7477;SDS011;3780;42.424;25.636;2022-12-10T06:53:11;28.20;;;18.15;;
7477;SDS011;3780;42.424;25.636;2022-12-10T06:55:36;30.27;;;18.00;;
7477;SDS011;3780;42.424;25.636;2022-12-10T06:58:03;30.13;;;17.15;;
7477;SDS011;3780;42.424;25.636;2022-12-10T07:00:28;31.13;;;17.20;;
7477;SDS011;3780;42.424;25.636;2022-12-10T07:02:54;35.22;;;17.70;;
7477;SDS011;3780;42.424;25.636;2022-12-10T07:05:19;25.38;;;14.43;;
7477;SDS011;3780;42.424;25.636;2022-12-10T07:07:44;24.02;;;14.70;;
7477;SDS011;3780;42.424;25.636;2022-12-10T07:10:10;33.17;;;15.02;;
7477;SDS011;3780;42.424;25.636;2022-12-10T07:12:35;26.67;;;15.70;;
7477;SDS011;3780;42.424;25.636;2022-12-10T07:15:00;30.30;;;15.60;;
7477;SDS011;3780;42.424;25.636;2022-12-10T07:17:26;32.60;;;15.25;;
7477;SDS011;3780;42.424;25.636;2022-12-10T07:19:51;29.80;;;14.80;;
7477;SDS011;3780;42.424;25.636;2022-12-10T07:22:16;27.70;;;15.02;;
7477;SDS011;3780;42.424;25.636;2022-12-10T07:24:42;27.38;;;14.25;;
7477;SDS011;3780;42.424;25.636;2022-12-10T07:27:08;33.50;;;13.93;;
7477;SDS011;3780;42.424;25.636;2022-12-10T07:29:33;33.15;;;15.02;;
7477;SDS011;3780;42.424;25.636;2022-12-10T07:31:58;42.45;;;23.77;;
7477;SDS011;3780;42.424;25.636;2022-12-10T07:34:24;27.80;;;15.02;;
7477;SDS011;3780;42.424;25.636;2022-12-10T07:36:49;27.88;;;13.52;;
7477;SDS011;3780;42.424;25.636;2022-12-10T07:39:14;26.13;;;14.18;;
7477;SDS011;3780;42.424;25.636;2022-12-10T07:41:48;35.60;;;14.50;;
7477;SDS011;3780;42.424;25.636;2022-12-10T07:44:17;28.80;;;14.43;;
7477;SDS011;3780;42.424;25.636;2022-12-10T07:46:45;35.90;;;15.52;;
7477;SDS011;3780;42.424;25.636;2022-12-10T07:49:11;31.90;;;15.50;;
7477;SDS011;3780;42.424;25.636;2022-12-10T07:51:36;32.70;;;15.10;;
7477;SDS011;3780;42.424;25.636;2022-12-10T07:54:02;37.05;;;18.83;;
7477;SDS011;3780;42.424;25.636;2022-12-10T07:56:27;41.25;;;18.63;;
7477;SDS011;3780;42.424;25.636;2022-12-10T07:58:53;36.97;;;15.88;;
7477;SDS011;3780;42.424;25.636;2022-12-10T08:01:19;45.13;;;18.02;;
7477;SDS011;3780;42.424;25.636;2022-12-10T08:03:47;42.83;;;18.42;;
7477;SDS011;3780;42.424;25.636;2022-12-10T08:06:13;38.85;;;16.27;;
7477;SDS011;3780;42.424;25.636;2022-12-10T08:08:39;42.28;;;16.48;;
7477;SDS011;3780;42.424;25.636;2022-12-10T08:11:05;44.42;;;17.58;;
7477;SDS011;3780;42.424;25.636;2022-12-10T08:13:30;44.03;;;17.75;;
7477;SDS011;3780;42.424;25.636;2022-12-10T08:16:12;48.10;;;19.40;;
7477;SDS011;3780;42.424;25.636;2022-12-10T08:18:39;43.42;;;18.90;;
7477;SDS011;3780;42.424;25.636;2022-12-10T08:21:04;49.55;;;25.73;;
7477;SDS011;3780;42.424;25.636;2022-12-10T08:23:30;63.33;;;33.95;;
7477;SDS011;3780;42.424;25.636;2022-12-10T08:25:55;54.72;;;30.02;;
7477;SDS011;3780;42.424;25.636;2022-12-10T08:28:21;55.15;;;28.77;;
7477;SDS011;3780;42.424;25.636;2022-12-10T08:30:47;57.65;;;28.10;;
7477;SDS011;3780;42.424;25.636;2022-12-10T08:33:13;50.22;;;25.80;;
7477;SDS011;3780;42.424;25.636;2022-12-10T08:35:38;49.63;;;26.55;;
7477;SDS011;3780;42.424;25.636;2022-12-10T08:38:03;48.45;;;24.25;;
7477;SDS011;3780;42.424;25.636;2022-12-10T08:40:29;44.33;;;22.77;;
7477;SDS011;3780;42.424;25.636;2022-12-10T08:42:54;45.38;;;19.90;;
7477;SDS011;3780;42.424;25.636;2022-12-10T08:45:19;54.33;;;21.60;;
7477;SDS011;3780;42.424;25.636;2022-12-10T08:47:45;44.97;;;19.88;;
7477;SDS011;3780;42.424;25.636;2022-12-10T08:50:10;39.33;;;18.05;;
7477;SDS011;3780;42.424;25.636;2022-12-10T08:52:35;45.95;;;20.02;;
7477;SDS011;3780;42.424;25.636;2022-12-10T08:55:01;45.05;;;18.23;;
7477;SDS011;3780;42.424;25.636;2022-12-10T08:57:26;37.88;;;15.95;;
7477;SDS011;3780;42.424;25.636;2022-12-10T08:59:51;49.05;;;21.10;;
7477;SDS011;3780;42.424;25.636;2022-12-10T09:02:16;41.33;;;20.70;;
7477;SDS011;3780;42.424;25.636;2022-12-10T09:04:42;49.05;;;22.00;;
7477;SDS011;3780;42.424;25.636;2022-12-10T09:07:07;50.78;;;21.80;;
7477;SDS011;3780;42.424;25.636;2022-12-10T09:09:33;54.60;;;23.83;;
7477;SDS011;3780;42.424;25.636;2022-12-10T09:11:58;41.08;;;21.02;;
7477;SDS011;3780;42.424;25.636;2022-12-10T09:14:23;43.15;;;23.48;;
7477;SDS011;3780;42.424;25.636;2022-12-10T09:16:49;56.88;;;23.50;;
7477;SDS011;3780;42.424;25.636;2022-12-10T09:19:14;45.55;;;23.70;;
7477;SDS011;3780;42.424;25.636;2022-12-10T09:21:39;49.10;;;22.00;;
7477;SDS011;3780;42.424;25.636;2022-12-10T09:24:05;49.72;;;30.08;;
7477;SDS011;3780;42.424;25.636;2022-12-10T09:26:30;79.68;;;51.60;;
7477;SDS011;3780;42.424;25.636;2022-12-10T09:28:56;125.32;;;86.72;;
7477;SDS011;3780;42.424;25.636;2022-12-10T09:31:22;145.05;;;105.65;;
7477;SDS011;3780;42.424;25.636;2022-12-10T09:33:48;186.85;;;141.15;;
7477;SDS011;3780;42.424;25.636;2022-12-10T09:36:14;183.68;;;136.70;;
7477;SDS011;3780;42.424;25.636;2022-12-10T09:38:40;188.65;;;145.18;;
7477;SDS011;3780;42.424;25.636;2022-12-10T09:41:30;99.35;;;63.40;;
7477;SDS011;3780;42.424;25.636;2022-12-10T09:46:52;51.72;;;26.33;;
7477;SDS011;3780;42.424;25.636;2022-12-10T09:49:28;56.03;;;23.27;;
7477;SDS011;3780;42.424;25.636;2022-12-10T09:51:57;49.92;;;24.58;;
7477;SDS011;3780;42.424;25.636;2022-12-10T09:54:29;46.78;;;20.48;;
7477;SDS011;3780;42.424;25.636;2022-12-10T09:56:55;42.45;;;16.17;;
7477;SDS011;3780;42.424;25.636;2022-12-10T09:59:29;31.48;;;16.27;;
7477;SDS011;3780;42.424;25.636;2022-12-10T10:02:29;39.40;;;14.70;;
7477;SDS011;3780;42.424;25.636;2022-12-10T10:04:48;31.90;;;14.13;;
7477;SDS011;3780;42.424;25.636;2022-12-10T10:07:17;34.58;;;13.00;;
7477;SDS011;3780;42.424;25.636;2022-12-10T10:09:44;38.45;;;14.57;;
7477;SDS011;3780;42.424;25.636;2022-12-10T10:12:13;34.40;;;13.25;;
7477;SDS011;3780;42.424;25.636;2022-12-10T10:14:39;35.28;;;13.35;;
7477;SDS011;3780;42.424;25.636;2022-12-10T10:17:08;29.40;;;11.70;;
7477;SDS011;3780;42.424;25.636;2022-12-10T10:19:35;32.60;;;12.32;;
7477;SDS011;3780;42.424;25.636;2022-12-10T10:22:02;28.45;;;12.93;;
7477;SDS011;3780;42.424;25.636;2022-12-10T10:24:33;29.92;;;14.00;;
7477;SDS011;3780;42.424;25.636;2022-12-10T10:26:59;37.70;;;18.08;;
7477;SDS011;3780;42.424;25.636;2022-12-10T10:29:30;35.30;;;13.52;;
7477;SDS011;3780;42.424;25.636;2022-12-10T10:32:12;34.47;;;13.85;;
7477;SDS011;3780;42.424;25.636;2022-12-10T10:34:41;35.25;;;13.13;;
7477;SDS011;3780;42.424;25.636;2022-12-10T10:37:11;47.70;;;22.45;;
7477;SDS011;3780;42.424;25.636;2022-12-10T10:39:37;55.90;;;35.90;;
7477;SDS011;3780;42.424;25.636;2022-12-10T10:42:07;71.57;;;39.20;;
7477;SDS011;3780;42.424;25.636;2022-12-10T10:44:33;64.35;;;41.20;;
7477;SDS011;3780;42.424;25.636;2022-12-10T10:47:00;45.83;;;20.85;;
7477;SDS011;3780;42.424;25.636;2022-12-10T10:49:26;38.05;;;19.55;;
7477;SDS011;3780;42.424;25.636;2022-12-10T10:51:53;65.03;;;36.63;;
7477;SDS011;3780;42.424;25.636;2022-12-10T10:57:04;50.25;;;31.13;;
7477;SDS011;3780;42.424;25.636;2022-12-10T10:59:32;48.45;;;25.80;;
7477;SDS011;3780;42.424;25.636;2022-12-10T11:04:50;40.30;;;22.05;;
7477;SDS011;3780;42.424;25.636;2022-12-10T11:07:21;42.10;;;19.70;;
7477;SDS011;3780;42.424;25.636;2022-12-10T11:09:47;38.58;;;18.08;;
7477;SDS011;3780;42.424;25.636;2022-12-10T11:12:27;43.60;;;18.95;;
7477;SDS011;3780;42.424;25.636;2022-12-10T11:14:52;41.22;;;18.48;;
7477;SDS011;3780;42.424;25.636;2022-12-10T11:17:19;34.75;;;17.73;;
7477;SDS011;3780;42.424;25.636;2022-12-10T11:19:55;40.92;;;19.02;;
7477;SDS011;3780;42.424;25.636;2022-12-10T11:22:22;35.72;;;18.17;;
7477;SDS011;3780;42.424;25.636;2022-12-10T11:24:48;35.20;;;17.10;;
7477;SDS011;3780;42.424;25.636;2022-12-10T11:27:17;44.42;;;18.63;;
7477;SDS011;3780;42.424;25.636;2022-12-10T11:33:04;43.05;;;23.15;;
7477;SDS011;3780;42.424;25.636;2022-12-10T11:40:12;44.53;;;21.55;;
7477;SDS011;3780;42.424;25.636;2022-12-10T11:47:58;70.43;;;44.55;;
7477;SDS011;3780;42.424;25.636;2022-12-10T11:56:13;56.58;;;26.50;;
7477;SDS011;3780;42.424;25.636;2022-12-10T12:01:36;47.93;;;24.13;;
7477;SDS011;3780;42.424;25.636;2022-12-10T12:14:20;53.63;;;31.48;;
7477;SDS011;3780;42.424;25.636;2022-12-10T12:16:48;52.97;;;30.80;;
7477;SDS011;3780;42.424;25.636;2022-12-10T12:19:17;44.20;;;22.30;;
7477;SDS011;3780;42.424;25.636;2022-12-10T12:21:43;40.40;;;21.63;;
7477;SDS011;3780;42.424;25.636;2022-12-10T12:24:20;36.88;;;17.17;;
7477;SDS011;3780;42.424;25.636;2022-12-10T12:26:49;28.52;;;13.45;;
7477;SDS011;3780;42.424;25.636;2022-12-10T12:31:49;28.77;;;12.50;;
7477;SDS011;3780;42.424;25.636;2022-12-10T12:34:21;30.73;;;12.60;;
7477;SDS011;3780;42.424;25.636;2022-12-10T12:36:46;29.08;;;12.23;;
7477;SDS011;3780;42.424;25.636;2022-12-10T12:39:24;26.55;;;11.55;;
7477;SDS011;3780;42.424;25.636;2022-12-10T12:44:22;30.10;;;11.73;;
7477;SDS011;3780;42.424;25.636;2022-12-10T12:46:54;37.33;;;12.48;;
7477;SDS011;3780;42.424;25.636;2022-12-10T12:49:23;27.90;;;11.45;;
7477;SDS011;3780;42.424;25.636;2022-12-10T12:51:54;30.63;;;12.52;;
7477;SDS011;3780;42.424;25.636;2022-12-10T12:54:21;36.15;;;11.90;;
7477;SDS011;3780;42.424;25.636;2022-12-10T12:56:57;32.42;;;12.80;;
7477;SDS011;3780;42.424;25.636;2022-12-10T13:05:01;31.38;;;11.75;;
7477;SDS011;3780;42.424;25.636;2022-12-10T13:07:28;29.58;;;11.80;;
7477;SDS011;3780;42.424;25.636;2022-12-10T13:12:32;29.25;;;12.70;;
7477;SDS011;3780;42.424;25.636;2022-12-10T13:17:46;32.08;;;13.73;;
7477;SDS011;3780;42.424;25.636;2022-12-10T13:23:03;25.25;;;12.52;;
7477;SDS011;3780;42.424;25.636;2022-12-10T13:28:49;31.38;;;12.90;;
7477;SDS011;3780;42.424;25.636;2022-12-10T13:36:27;30.40;;;12.27;;
7477;SDS011;3780;42.424;25.636;2022-12-10T13:39:36;29.75;;;11.25;;
7477;SDS011;3780;42.424;25.636;2022-12-10T13:42:17;30.33;;;13.23;;
7477;SDS011;3780;42.424;25.636;2022-12-10T13:44:49;40.00;;;12.07;;
7477;SDS011;3780;42.424;25.636;2022-12-10T13:47:32;34.05;;;12.68;;
7477;SDS011;3780;42.424;25.636;2022-12-10T13:50:02;28.70;;;13.00;;
7477;SDS011;3780;42.424;25.636;2022-12-10T13:55:18;29.50;;;12.70;;
7477;SDS011;3780;42.424;25.636;2022-12-10T13:57:56;33.78;;;14.40;;
7477;SDS011;3780;42.424;25.636;2022-12-10T14:00:32;47.92;;;15.65;;
7477;SDS011;3780;42.424;25.636;2022-12-10T14:07:56;28.25;;;15.02;;
7477;SDS011;3780;42.424;25.636;2022-12-10T14:10:24;40.47;;;14.40;;
7477;SDS011;3780;42.424;25.636;2022-12-10T14:12:51;41.25;;;15.50;;
7477;SDS011;3780;42.424;25.636;2022-12-10T14:15:20;35.00;;;13.75;;
7477;SDS011;3780;42.424;25.636;2022-12-10T14:17:48;34.58;;;14.77;;
7477;SDS011;3780;42.424;25.636;2022-12-10T14:20:15;34.85;;;14.77;;
7477;SDS011;3780;42.424;25.636;2022-12-10T14:22:48;36.10;;;15.98;;
7477;SDS011;3780;42.424;25.636;2022-12-10T14:27:39;41.37;;;16.40;;
7477;SDS011;3780;42.424;25.636;2022-12-10T14:30:37;38.90;;;16.20;;
7477;SDS011;3780;42.424;25.636;2022-12-10T14:32:56;37.00;;;15.95;;
7477;SDS011;3780;42.424;25.636;2022-12-10T14:35:24;39.53;;;17.35;;
7477;SDS011;3780;42.424;25.636;2022-12-10T14:37:50;37.72;;;17.20;;
7477;SDS011;3780;42.424;25.636;2022-12-10T14:40:23;35.60;;;17.80;;
7477;SDS011;3780;42.424;25.636;2022-12-10T14:42:50;47.17;;;18.25;;
7477;SDS011;3780;42.424;25.636;2022-12-10T14:45:16;73.75;;;33.72;;
7477;SDS011;3780;42.424;25.636;2022-12-10T14:47:41;45.38;;;18.67;;
7477;SDS011;3780;42.424;25.636;2022-12-10T14:50:11;39.50;;;17.23;;
7477;SDS011;3780;42.424;25.636;2022-12-10T14:52:41;45.03;;;18.02;;
7477;SDS011;3780;42.424;25.636;2022-12-10T14:55:11;36.22;;;17.70;;
7477;SDS011;3780;42.424;25.636;2022-12-10T14:57:38;43.42;;;18.50;;
7477;SDS011;3780;42.424;25.636;2022-12-10T15:00:15;42.80;;;19.85;;
7477;SDS011;3780;42.424;25.636;2022-12-10T15:02:45;44.35;;;20.05;;
7477;SDS011;3780;42.424;25.636;2022-12-10T15:05:13;46.10;;;19.42;;
7477;SDS011;3780;42.424;25.636;2022-12-10T15:07:40;45.45;;;19.52;;
7477;SDS011;3780;42.424;25.636;2022-12-10T15:10:07;48.50;;;20.08;;
7477;SDS011;3780;42.424;25.636;2022-12-10T15:15:03;46.35;;;19.05;;
7477;SDS011;3780;42.424;25.636;2022-12-10T15:17:33;44.30;;;20.13;;
7477;SDS011;3780;42.424;25.636;2022-12-10T15:19:58;43.13;;;19.67;;
7477;SDS011;3780;42.424;25.636;2022-12-10T15:22:24;46.78;;;20.35;;
7477;SDS011;3780;42.424;25.636;2022-12-10T15:24:51;42.25;;;20.83;;
7477;SDS011;3780;42.424;25.636;2022-12-10T15:29:42;53.13;;;22.02;;
7477;SDS011;3780;42.424;25.636;2022-12-10T15:32:11;50.67;;;21.65;;
7477;SDS011;3780;42.424;25.636;2022-12-10T15:34:43;53.45;;;22.35;;
7477;SDS011;3780;42.424;25.636;2022-12-10T15:37:14;49.30;;;21.92;;
7477;SDS011;3780;42.424;25.636;2022-12-10T15:39:48;49.25;;;22.05;;
7477;SDS011;3780;42.424;25.636;2022-12-10T15:42:27;44.03;;;20.80;;
7477;SDS011;3780;42.424;25.636;2022-12-10T15:44:54;44.85;;;21.65;;
7477;SDS011;3780;42.424;25.636;2022-12-10T15:47:23;48.13;;;20.27;;
7477;SDS011;3780;42.424;25.636;2022-12-10T15:49:50;43.15;;;20.95;;
7477;SDS011;3780;42.424;25.636;2022-12-10T15:52:20;42.47;;;18.63;;
7477;SDS011;3780;42.424;25.636;2022-12-10T15:54:47;40.60;;;20.35;;
7477;SDS011;3780;42.424;25.636;2022-12-10T15:57:14;44.88;;;19.90;;
7477;SDS011;3780;42.424;25.636;2022-12-10T15:59:40;47.45;;;18.75;;
7477;SDS011;3780;42.424;25.636;2022-12-10T16:04:50;42.78;;;19.20;;
7477;SDS011;3780;42.424;25.636;2022-12-10T16:07:16;42.75;;;18.83;;
7477;SDS011;3780;42.424;25.636;2022-12-10T16:09:43;42.50;;;20.98;;
7477;SDS011;3780;42.424;25.636;2022-12-10T16:12:09;59.50;;;31.67;;
7477;SDS011;3780;42.424;25.636;2022-12-10T16:14:35;52.05;;;27.75;;
7477;SDS011;3780;42.424;25.636;2022-12-10T16:17:01;43.65;;;21.70;;
7477;SDS011;3780;42.424;25.636;2022-12-10T16:19:26;39.90;;;18.38;;